createdAt,value
2022-10-03T00:02:43.317Z,13.90
2022-10-03T00:05:35.216Z,13.90
2022-10-03T00:08:10.250Z,13.90
2022-10-03T00:10:54.690Z,13.80
2022-10-03T00:13:31.772Z,13.90
2022-10-03T00:16:11.054Z,13.90
2022-10-03T00:18:53.856Z,14.10
2022-10-03T00:21:45.541Z,14.40
2022-10-03T00:24:25.916Z,14.30
2022-10-03T00:26:57.973Z,14.10
2022-10-03T00:29:47.440Z,14.30
2022-10-03T00:32:30.261Z,14.10
2022-10-03T00:35:10.324Z,14.30
2022-10-03T00:37:42.654Z,14.20
2022-10-03T00:40:56.438Z,14.00
2022-10-03T00:44:00.593Z,14.10
2022-10-03T00:47:20.991Z,14.20
2022-10-03T00:50:18.879Z,13.80
2022-10-03T00:53:10.041Z,13.90
2022-10-03T00:56:01.911Z,13.80
2022-10-03T00:58:45.887Z,14.20
2022-10-03T01:01:26.908Z,14.40
2022-10-03T01:04:06.928Z,14.60
2022-10-03T01:06:46.015Z,14.40
2022-10-03T01:09:21.903Z,14.30
2022-10-03T01:12:02.459Z,14.20
2022-10-03T01:14:53.647Z,14.20
2022-10-03T01:17:29.494Z,14.10
2022-10-03T01:20:15.199Z,13.80
2022-10-03T01:23:25.689Z,13.90
2022-10-03T01:26:02.576Z,13.90
2022-10-03T01:29:13.231Z,13.90
2022-10-03T01:31:50.750Z,13.70
2022-10-03T01:34:26.409Z,13.90
2022-10-03T01:37:06.160Z,14.20
2022-10-03T01:39:43.107Z,13.90
2022-10-03T01:42:17.266Z,14.00
2022-10-03T01:45:01.969Z,14.10
2022-10-03T01:47:39.166Z,14.20
2022-10-03T01:50:17.312Z,14.30
2022-10-03T01:52:53.175Z,14.10
2022-10-03T01:55:29.252Z,13.90
2022-10-03T01:58:02.202Z,13.70
2022-10-03T02:00:40.217Z,13.80
2022-10-03T02:03:16.359Z,13.80
2022-10-03T02:05:55.671Z,13.70
2022-10-03T02:08:32.015Z,13.90
2022-10-03T02:11:03.276Z,14.00
2022-10-03T02:13:45.073Z,13.80
2022-10-03T02:16:24.937Z,13.80
2022-10-03T02:19:01.402Z,13.90
2022-10-03T02:21:32.672Z,13.70
2022-10-03T02:24:19.854Z,13.80
2022-10-03T02:27:21.060Z,14.00
2022-10-03T02:30:06.763Z,14.00
2022-10-03T02:33:05.634Z,13.80
2022-10-03T02:35:51.939Z,14.00
2022-10-03T02:38:50.036Z,13.70
2022-10-03T02:41:36.683Z,13.50
2022-10-03T02:44:43.746Z,13.70
2022-10-03T02:47:33.659Z,13.90
2022-10-03T02:50:23.279Z,13.90
2022-10-03T02:53:29.612Z,14.00
2022-10-03T02:56:32.154Z,14.10
2022-10-03T02:59:26.996Z,13.80
2022-10-03T03:02:23.390Z,13.90
2022-10-03T03:05:14.260Z,13.90
2022-10-03T03:08:10.177Z,14.10
2022-10-03T03:11:08.282Z,14.20
2022-10-03T03:13:59.102Z,13.90
2022-10-03T03:16:49.739Z,13.90
2022-10-03T03:19:35.959Z,13.90
2022-10-03T03:22:18.106Z,13.80
2022-10-03T03:24:59.805Z,13.80
2022-10-03T03:27:41.071Z,13.50
2022-10-03T03:30:13.552Z,13.40
2022-10-03T03:32:59.225Z,13.40
2022-10-03T03:35:39.826Z,13.30
2022-10-03T03:38:17.793Z,13.40
2022-10-03T03:41:03.597Z,13.50
2022-10-03T03:43:45.636Z,13.40
2022-10-03T03:46:34.162Z,13.50
2022-10-03T03:49:13.603Z,13.50
2022-10-03T03:51:51.551Z,13.60
2022-10-03T03:55:01.860Z,13.70
2022-10-03T03:57:51.933Z,13.80
2022-10-03T04:00:21.992Z,13.70
2022-10-03T04:03:04.994Z,13.40
2022-10-03T04:05:48.448Z,13.50
2022-10-03T04:08:40.666Z,13.30
2022-10-03T04:11:20.744Z,13.50
2022-10-03T04:14:02.842Z,13.60
2022-10-03T04:17:01.118Z,13.80
2022-10-03T04:19:41.278Z,13.90
2022-10-03T04:22:23.647Z,13.80
2022-10-03T04:25:15.936Z,13.70
2022-10-03T04:28:01.262Z,13.90
2022-10-03T04:30:43.720Z,13.90
2022-10-03T04:33:26.091Z,13.60
2022-10-03T04:36:13.808Z,13.60
2022-10-03T04:38:50.030Z,13.70
2022-10-03T04:41:27.645Z,13.90
2022-10-03T04:44:03.052Z,13.70
2022-10-03T04:46:43.536Z,13.80
2022-10-03T04:49:17.520Z,13.90
2022-10-03T04:51:55.766Z,13.70
2022-10-03T04:54:31.628Z,13.60
2022-10-03T04:57:05.868Z,13.60
2022-10-03T04:59:48.267Z,13.90
2022-10-03T05:02:40.772Z,13.90
2022-10-03T05:05:29.377Z,13.80
2022-10-03T05:08:07.117Z,13.60
2022-10-03T05:10:47.547Z,13.80
2022-10-03T05:13:20.405Z,13.80
2022-10-03T05:15:57.762Z,13.90
2022-10-03T05:18:35.468Z,13.70
2022-10-03T05:21:10.435Z,13.60
2022-10-03T05:23:53.946Z,13.60
2022-10-03T05:26:45.796Z,13.80
2022-10-03T05:29:20.656Z,14.10
2022-10-03T05:31:58.097Z,13.80
2022-10-03T05:34:41.408Z,13.50
2022-10-03T05:37:33.140Z,13.70
2022-10-03T05:40:04.707Z,13.80
2022-10-03T05:43:01.333Z,13.80
2022-10-03T05:45:34.689Z,13.50
2022-10-03T05:48:15.401Z,13.60
2022-10-03T05:51:22.045Z,13.70
2022-10-03T05:54:21.749Z,13.70
2022-10-03T05:57:07.865Z,13.80
2022-10-03T06:00:07.762Z,13.60
2022-10-03T06:02:54.746Z,13.50
2022-10-03T06:05:30.841Z,13.30
2022-10-03T06:08:27.985Z,13.50
2022-10-03T06:11:11.460Z,13.90
2022-10-03T06:13:59.030Z,13.90
2022-10-03T06:16:37.926Z,13.70
2022-10-03T06:19:15.048Z,13.40
2022-10-03T06:22:22.749Z,13.40
2022-10-03T06:25:35.612Z,13.60
2022-10-03T06:28:31.319Z,13.50
2022-10-03T06:31:28.275Z,13.30
2022-10-03T06:34:18.405Z,13.40
2022-10-03T06:36:58.747Z,13.30
2022-10-03T06:40:00.537Z,13.50
2022-10-03T06:42:58.699Z,13.40
2022-10-03T06:46:01.487Z,13.70
2022-10-03T06:48:50.660Z,13.90
2022-10-03T06:51:45.618Z,13.80
2022-10-03T06:55:04.389Z,14.00
2022-10-03T06:58:10.754Z,13.70
2022-10-03T07:00:55.885Z,13.70
2022-10-03T07:03:56.907Z,13.90
2022-10-03T07:06:51.276Z,13.90
2022-10-03T07:10:05.149Z,13.90
2022-10-03T07:13:00.652Z,13.90
2022-10-03T07:19:22.683Z,14.20
2022-10-03T07:22:24.970Z,14.00
2022-10-03T07:25:14.962Z,14.10
2022-10-03T07:27:59.809Z,14.10
2022-10-03T07:30:32.235Z,14.20
2022-10-03T07:33:57.192Z,14.00
2022-10-03T07:37:14.419Z,14.10
2022-10-03T07:40:20.840Z,14.30
2022-10-03T07:43:12.279Z,14.20
2022-10-03T07:45:45.627Z,13.90
2022-10-03T07:48:54.734Z,13.70
2022-10-03T07:51:27.610Z,13.80
2022-10-03T07:54:43.482Z,14.10
2022-10-03T07:57:39.473Z,14.20
2022-10-03T08:00:27.044Z,14.20
2022-10-03T08:03:36.749Z,14.10
2022-10-03T08:06:23.658Z,14.20
2022-10-03T08:09:33.437Z,14.40
2022-10-03T08:12:33.611Z,14.40
2022-10-03T08:15:11.910Z,14.60
2022-10-03T08:18:14.828Z,14.90
2022-10-03T08:20:55.276Z,15.20
2022-10-03T08:24:13.100Z,15.20
2022-10-03T08:27:19.435Z,15.00
2022-10-03T08:30:20.792Z,15.00
2022-10-03T08:33:17.454Z,15.30
2022-10-03T08:36:12.393Z,15.30
2022-10-03T08:38:53.998Z,15.30
2022-10-03T08:42:04.733Z,15.50
2022-10-03T08:45:09.148Z,15.40
2022-10-03T08:48:12.531Z,15.50
2022-10-03T08:50:56.759Z,15.60
2022-10-03T08:53:50.464Z,15.30
2022-10-03T08:56:23.160Z,15.20
2022-10-03T08:59:31.079Z,15.30
2022-10-03T09:03:02.059Z,15.50
2022-10-03T09:06:13.344Z,15.30
2022-10-03T09:08:58.870Z,15.10
2022-10-03T09:11:47.147Z,15.00
2022-10-03T09:14:41.270Z,15.40
2022-10-03T09:17:37.639Z,15.60
2022-10-03T09:20:20.616Z,15.80
2022-10-03T09:23:06.936Z,15.90
2022-10-03T09:25:52.932Z,16.00
2022-10-03T09:28:59.288Z,15.80
2022-10-03T09:32:04.133Z,16.00
2022-10-03T09:35:04.791Z,15.80
2022-10-03T09:37:54.095Z,16.30
2022-10-03T09:41:03.050Z,16.20
2022-10-03T09:44:07.417Z,15.90
2022-10-03T09:47:21.860Z,16.30
2022-10-03T09:50:32.268Z,16.40
2022-10-03T09:53:27.354Z,16.60
2022-10-03T09:56:27.865Z,16.70
2022-10-03T09:59:16.438Z,16.80
2022-10-03T10:01:52.487Z,16.60
2022-10-03T10:04:55.226Z,16.50
2022-10-03T10:07:57.158Z,16.60
2022-10-03T10:10:49.754Z,16.60
2022-10-03T10:14:06.723Z,16.80
2022-10-03T10:16:50.365Z,16.60
2022-10-03T10:19:45.542Z,16.40
2022-10-03T10:23:07.963Z,16.80
2022-10-03T10:26:09.756Z,16.90
2022-10-03T10:29:00.982Z,16.80
2022-10-03T10:32:19.154Z,16.90
2022-10-03T10:35:21.956Z,17.40
2022-10-03T10:38:15.868Z,17.10
2022-10-03T10:41:28.545Z,17.00
2022-10-03T10:44:33.544Z,16.80
2022-10-03T10:47:40.870Z,16.60
2022-10-03T10:50:50.611Z,16.90
2022-10-03T10:54:09.386Z,17.30
2022-10-03T10:57:07.787Z,17.50
2022-10-03T11:00:11.501Z,17.40
2022-10-03T11:03:16.685Z,16.90
2022-10-03T11:06:14.374Z,17.20
2022-10-03T11:09:30.842Z,17.20
2022-10-03T11:12:38.049Z,17.10
2022-10-03T11:16:07.790Z,17.00
2022-10-03T11:19:29.641Z,17.20
2022-10-03T11:22:46.328Z,17.30
2022-10-03T11:26:11.024Z,17.40
2022-10-03T11:29:22.328Z,17.50
2022-10-03T11:32:31.579Z,17.20
2022-10-03T11:35:47.675Z,16.90
2022-10-03T11:38:22.107Z,16.90
2022-10-03T11:41:01.569Z,16.90
2022-10-03T11:44:04.997Z,16.80
2022-10-03T11:46:54.565Z,16.60
2022-10-03T11:49:45.910Z,17.00
2022-10-03T11:52:28.408Z,17.10
2022-10-03T11:55:21.580Z,16.70
2022-10-03T11:58:00.931Z,16.40
2022-10-03T12:00:34.397Z,16.50
2022-10-03T12:03:21.902Z,16.00
2022-10-03T12:06:18.616Z,16.10
2022-10-03T12:08:59.343Z,16.40
2022-10-03T12:11:33.928Z,16.70
2022-10-03T12:14:28.975Z,16.70
2022-10-03T12:17:05.677Z,16.70
2022-10-03T12:19:39.263Z,17.00
2022-10-03T12:22:23.933Z,17.40
2022-10-03T12:24:56.037Z,17.60
2022-10-03T12:27:44.743Z,17.80
2022-10-03T12:30:17.339Z,18.00
2022-10-03T12:32:54.643Z,18.10
2022-10-03T12:35:36.256Z,18.30
2022-10-03T12:38:17.656Z,18.20
2022-10-03T12:40:52.067Z,18.10
2022-10-03T12:43:38.653Z,18.10
2022-10-03T12:46:14.942Z,18.00
2022-10-03T12:48:48.495Z,18.40
2022-10-03T12:51:27.256Z,18.40
2022-10-03T12:54:06.815Z,18.50
2022-10-03T12:56:44.674Z,18.10
2022-10-03T12:59:21.261Z,17.70
2022-10-03T13:02:09.408Z,18.10
2022-10-03T13:04:46.494Z,18.30
2022-10-03T13:07:30.374Z,18.20
2022-10-03T13:10:10.609Z,18.00
2022-10-03T13:12:46.690Z,18.10
2022-10-03T13:15:44.454Z,18.20
2022-10-03T13:18:37.130Z,18.00
2022-10-03T13:21:33.407Z,17.90
2022-10-03T13:24:02.781Z,17.80
2022-10-03T13:26:43.241Z,17.80
2022-10-03T13:29:23.776Z,17.70
2022-10-03T13:32:17.435Z,17.90
2022-10-03T13:35:37.290Z,18.00
2022-10-03T13:38:21.342Z,18.10
2022-10-03T13:40:57.922Z,18.20
2022-10-03T13:43:35.705Z,18.40
2022-10-03T13:46:08.379Z,18.60
2022-10-03T13:48:38.063Z,18.30
2022-10-03T13:51:13.179Z,18.40
2022-10-03T13:53:56.585Z,18.20
2022-10-03T13:56:39.119Z,18.50
2022-10-03T13:59:24.046Z,18.30
2022-10-03T14:02:01.964Z,18.20
2022-10-03T14:04:55.275Z,18.10
2022-10-03T14:07:32.275Z,17.70
2022-10-03T14:10:12.988Z,17.70
2022-10-03T14:12:59.896Z,18.00
2022-10-03T14:15:36.283Z,17.80
2022-10-03T14:18:16.777Z,18.00
2022-10-03T14:21:19.500Z,18.20
2022-10-03T14:23:55.163Z,18.30
2022-10-03T14:26:32.201Z,17.70
2022-10-03T14:29:05.203Z,17.30
2022-10-03T14:31:43.101Z,17.60
2022-10-03T14:34:28.996Z,17.60
2022-10-03T14:37:02.273Z,17.70
2022-10-03T14:39:41.500Z,17.70
2022-10-03T14:42:33.716Z,17.80
2022-10-03T14:45:07.829Z,17.50
2022-10-03T14:47:38.200Z,17.60
2022-10-03T14:50:07.806Z,17.60
2022-10-03T14:52:42.790Z,17.60
2022-10-03T14:55:25.339Z,17.50
2022-10-03T14:58:13.165Z,17.50
2022-10-03T15:00:45.618Z,17.60
2022-10-03T15:03:30.413Z,17.50
2022-10-03T15:06:18.742Z,17.30
2022-10-03T15:08:49.706Z,17.10
2022-10-03T15:11:27.282Z,16.90
2022-10-03T15:13:57.846Z,17.20
2022-10-03T15:16:26.985Z,17.20
2022-10-03T15:18:57.701Z,17.20
2022-10-03T15:21:27.178Z,17.10
2022-10-03T15:23:59.899Z,17.20
2022-10-03T15:26:31.723Z,17.10
2022-10-03T15:29:03.691Z,17.30
2022-10-03T15:31:36.837Z,17.40
2022-10-03T15:34:08.337Z,17.50
2022-10-03T15:36:39.316Z,17.50
2022-10-03T15:39:18.104Z,17.40
2022-10-03T15:41:54.323Z,17.20
2022-10-03T15:44:32.672Z,17.50
2022-10-03T15:47:05.350Z,17.70
2022-10-03T15:49:38.252Z,17.60
2022-10-03T15:52:17.291Z,17.30
2022-10-03T15:54:56.870Z,17.10
2022-10-03T15:57:41.678Z,17.30
2022-10-03T16:00:22.369Z,17.50
2022-10-03T16:02:57.259Z,17.70
2022-10-03T16:05:25.872Z,17.70
2022-10-03T16:08:01.399Z,17.40
2022-10-03T16:10:33.785Z,17.30
2022-10-03T16:13:13.280Z,17.20
2022-10-03T16:15:58.841Z,17.30
2022-10-03T16:18:52.400Z,17.20
2022-10-03T16:21:44.042Z,17.00
2022-10-03T16:24:23.901Z,17.00
2022-10-03T16:26:56.027Z,17.20
2022-10-03T16:29:29.338Z,17.00
2022-10-03T16:32:04.982Z,16.90
2022-10-03T16:34:35.268Z,17.00
2022-10-03T16:37:06.838Z,16.90
2022-10-03T16:39:37.398Z,17.10
2022-10-03T16:42:14.294Z,16.90
2022-10-03T16:44:51.661Z,17.00
2022-10-03T16:47:28.825Z,16.90
2022-10-03T16:50:16.354Z,17.30
2022-10-03T16:52:48.312Z,17.20
2022-10-03T16:55:19.163Z,17.00
2022-10-03T16:57:52.622Z,17.10
2022-10-03T17:00:25.125Z,17.00
2022-10-03T17:02:55.534Z,17.10
2022-10-03T17:05:24.115Z,17.20
2022-10-03T17:07:54.869Z,17.20
2022-10-03T17:10:34.162Z,17.20
2022-10-03T17:13:06.712Z,17.20
2022-10-03T17:15:39.428Z,17.20
2022-10-03T17:18:24.695Z,17.10
2022-10-03T17:20:57.181Z,17.20
2022-10-03T17:23:30.728Z,17.00
2022-10-03T17:26:04.354Z,17.00
2022-10-03T17:28:39.734Z,16.90
2022-10-03T17:31:31.286Z,16.90
2022-10-03T17:34:08.930Z,16.80
2022-10-03T17:37:00.217Z,16.90
2022-10-03T17:39:43.855Z,16.90
2022-10-03T17:42:32.471Z,16.90
2022-10-03T17:45:12.364Z,16.60
2022-10-03T17:47:54.492Z,16.70
2022-10-03T17:50:29.507Z,17.00
2022-10-03T17:52:58.361Z,17.20
2022-10-03T17:55:31.668Z,17.10
2022-10-03T17:58:04.240Z,17.30
2022-10-03T18:00:37.832Z,17.30
2022-10-03T18:03:14.464Z,17.00
2022-10-03T18:05:45.417Z,16.80
2022-10-03T18:08:18.792Z,16.70
2022-10-03T18:10:50.407Z,16.90
2022-10-03T18:13:22.723Z,17.00
2022-10-03T18:16:11.190Z,17.10
2022-10-03T18:19:09.253Z,17.10
2022-10-03T18:22:02.341Z,17.00
2022-10-03T18:24:53.215Z,17.00
2022-10-03T18:27:54.724Z,17.10
2022-10-03T18:30:27.876Z,16.80
2022-10-03T18:32:58.369Z,16.80
2022-10-03T18:35:29.680Z,16.90
2022-10-03T18:38:06.158Z,16.90
2022-10-03T18:40:36.687Z,16.70
2022-10-03T18:43:07.491Z,16.70
2022-10-03T18:45:44.731Z,16.80
2022-10-03T18:48:18.655Z,16.60
2022-10-03T18:50:57.371Z,16.70
2022-10-03T18:53:34.179Z,16.70
2022-10-03T18:56:06.457Z,16.50
2022-10-03T18:58:37.257Z,16.50
2022-10-03T19:01:08.321Z,16.60
2022-10-03T19:03:40.250Z,16.50
2022-10-03T19:06:19.557Z,16.60
2022-10-03T19:08:52.154Z,16.70
2022-10-03T19:11:25.422Z,16.50
2022-10-03T19:14:01.692Z,16.60
2022-10-03T19:16:43.200Z,16.60
2022-10-03T19:19:16.312Z,16.70
2022-10-03T19:21:45.929Z,16.90
2022-10-03T19:24:24.376Z,17.00
2022-10-03T19:27:05.872Z,16.90
2022-10-03T19:29:36.627Z,16.80
2022-10-03T19:32:09.202Z,16.80
2022-10-03T19:34:39.109Z,16.70
2022-10-03T19:37:16.859Z,16.80
2022-10-03T19:39:45.289Z,16.90
2022-10-03T19:42:27.610Z,16.90
2022-10-03T19:44:57.950Z,16.90
2022-10-03T19:47:31.539Z,16.70
2022-10-03T19:50:08.487Z,16.50
2022-10-03T19:52:41.607Z,16.40
2022-10-03T19:55:15.134Z,16.40
2022-10-03T19:57:46.327Z,16.50
2022-10-03T20:00:30.153Z,16.60
2022-10-03T20:03:07.270Z,16.50
2022-10-03T20:05:42.929Z,16.20
2022-10-03T20:08:22.921Z,16.20
2022-10-03T20:11:10.829Z,16.10
2022-10-03T20:13:43.595Z,16.30
2022-10-03T20:16:16.462Z,16.20
2022-10-03T20:18:46.391Z,16.50
2022-10-03T20:21:19.944Z,16.70
2022-10-03T20:23:49.679Z,16.60
2022-10-03T20:26:25.290Z,16.40
2022-10-03T20:29:07.724Z,16.30
2022-10-03T20:31:38.893Z,15.90
2022-10-03T20:34:12.726Z,16.00
2022-10-03T20:36:42.834Z,16.30
2022-10-03T20:39:19.385Z,16.30
2022-10-03T20:42:00.040Z,16.10
2022-10-03T20:44:52.105Z,16.10
2022-10-03T20:47:33.150Z,16.30
2022-10-03T20:50:07.786Z,16.40
2022-10-03T20:52:35.660Z,16.40
2022-10-03T20:55:09.152Z,16.40
2022-10-03T20:57:44.133Z,16.40
2022-10-03T21:00:20.226Z,16.20
2022-10-03T21:02:53.773Z,16.30
2022-10-03T21:05:24.516Z,16.20
2022-10-03T21:07:54.885Z,16.30
2022-10-03T21:10:29.767Z,16.40
2022-10-03T21:13:01.236Z,16.20
2022-10-03T21:15:41.814Z,16.40
2022-10-03T21:18:20.705Z,16.50
2022-10-03T21:20:51.079Z,16.50
2022-10-03T21:23:23.630Z,16.50
2022-10-03T21:25:58.574Z,16.40
2022-10-03T21:28:30.410Z,16.50
2022-10-03T21:31:14.689Z,16.50
2022-10-03T21:33:49.268Z,16.20
2022-10-03T21:36:23.263Z,16.10
2022-10-03T21:38:52.150Z,16.20
2022-10-03T21:41:38.574Z,16.30
2022-10-03T21:44:16.484Z,15.90
2022-10-03T21:46:53.391Z,15.80
2022-10-03T21:49:40.659Z,15.70
2022-10-03T21:52:28.097Z,15.80
2022-10-03T21:55:06.312Z,15.90
2022-10-03T21:57:48.510Z,16.00
2022-10-03T22:00:17.304Z,15.90
2022-10-03T22:02:53.963Z,16.00
2022-10-03T22:05:34.405Z,15.70
2022-10-03T22:08:14.513Z,15.70
2022-10-03T22:10:48.100Z,15.60
2022-10-03T22:13:22.463Z,15.80
2022-10-03T22:15:54.526Z,16.10
2022-10-03T22:18:25.763Z,16.00
2022-10-03T22:20:57.333Z,15.90
2022-10-03T22:23:34.175Z,16.00
2022-10-03T22:26:12.050Z,16.00
2022-10-03T22:28:53.241Z,16.10
2022-10-03T22:31:28.475Z,16.30
2022-10-03T22:34:06.857Z,16.30
2022-10-03T22:36:36.006Z,16.30
2022-10-03T22:39:09.983Z,16.30
2022-10-03T22:41:38.799Z,16.40
2022-10-03T22:44:11.116Z,16.40
2022-10-03T22:46:43.372Z,16.40
2022-10-03T22:49:15.764Z,16.40
2022-10-03T22:51:45.973Z,16.40
2022-10-03T22:54:16.956Z,16.40
2022-10-03T22:56:47.108Z,16.30
2022-10-03T22:59:21.173Z,16.30
2022-10-03T23:01:50.894Z,16.20
2022-10-03T23:04:28.265Z,16.30
2022-10-03T23:07:26.708Z,16.20
2022-10-03T23:10:02.834Z,16.30
2022-10-03T23:12:37.876Z,16.20
2022-10-03T23:15:10.843Z,16.10
2022-10-03T23:17:56.950Z,16.10
2022-10-03T23:20:41.682Z,16.20
2022-10-03T23:23:16.843Z,16.20
2022-10-03T23:26:02.848Z,16.20
2022-10-03T23:28:37.999Z,16.10
2022-10-03T23:31:07.341Z,16.20
2022-10-03T23:33:51.466Z,16.30
2022-10-03T23:36:23.222Z,16.30
2022-10-03T23:39:01.489Z,16.40
2022-10-03T23:41:58.375Z,16.50
2022-10-03T23:44:49.881Z,16.50
2022-10-03T23:47:24.271Z,16.60
2022-10-03T23:49:53.299Z,16.40
2022-10-03T23:52:24.576Z,16.30
2022-10-03T23:54:55.067Z,16.20
2022-10-03T23:57:27.990Z,16.10
2022-10-03T23:59:55.945Z,16.10
